Time;durP1;ratioP1;P1;durP2;ratioP2;P2;SDS_P1;SDS_P2;PMS_P1;PMS_P2;Temp;Humidity;BMP_temperature;BMP_pressure;BME280_temperature;BME280_humidity;BME280_pressure;Samples;Min_cycle;Max_cycle;Signal;HPM_P1;HPM_P2
2022/04/27 00:01:17;;;;;;;6.30;3.72;;;10.70;99.90;;;;;;4190891;28;20037;-63
2022/04/27 00:03:18;;;;;;;4.80;3.80;;;10.70;99.90;;;;;;4189534;28;20454;-62
2022/04/27 00:05:19;;;;;;;5.80;3.95;;;10.70;99.90;;;;;;4191219;28;20021;-63
2022/04/27 00:07:20;;;;;;;5.93;3.83;;;10.60;99.90;;;;;;4190993;28;20085;-63
2022/04/27 00:09:20;;;;;;;5.80;3.60;;;10.60;99.90;;;;;;4185520;28;20112;-62
2022/04/27 00:11:21;;;;;;;6.32;3.60;;;10.60;99.90;;;;;;4190531;28;20044;-63
2022/04/27 00:13:21;;;;;;;6.03;3.33;;;10.60;99.90;;;;;;4189925;28;20120;-62
2022/04/27 00:15:25;;;;;;;7.50;3.90;;;10.50;99.90;;;;;;4188617;28;20071;-63
2022/04/27 00:17:25;;;;;;;6.88;3.88;;;10.50;99.90;;;;;;4190894;28;20045;-62
2022/04/27 00:19:27;;;;;;;6.13;3.40;;;10.50;99.90;;;;;;4188357;28;20028;-63
2022/04/27 00:21:28;;;;;;;5.23;4.00;;;10.50;99.90;;;;;;4193078;28;20095;-63
2022/04/27 00:23:30;;;;;;;7.63;4.07;;;10.50;99.90;;;;;;4191061;28;20040;-62
2022/04/27 00:25:32;;;;;;;5.35;3.90;;;10.50;99.90;;;;;;4192127;28;20033;-63
2022/04/27 00:27:33;;;;;;;6.03;4.18;;;10.50;99.90;;;;;;4195021;28;20029;-62
2022/04/27 00:29:34;;;;;;;4.82;3.92;;;10.50;99.90;;;;;;4187526;28;20037;-62
2022/04/27 00:31:36;;;;;;;7.50;4.20;;;10.40;99.90;;;;;;4191271;28;20040;-63
2022/04/27 00:33:36;;;;;;;6.37;3.63;;;10.40;99.90;;;;;;4189404;28;20039;-63
2022/04/27 00:35:37;;;;;;;4.70;3.72;;;10.40;99.90;;;;;;4192343;28;20059;-63
2022/04/27 00:37:37;;;;;;;7.03;4.07;;;10.40;99.90;;;;;;4193025;28;20082;-62
2022/04/27 00:39:38;;;;;;;5.55;3.97;;;10.40;99.90;;;;;;4193155;28;20032;-63
2022/04/27 00:41:39;;;;;;;5.80;3.60;;;10.40;99.90;;;;;;4192773;28;20036;-62
2022/04/27 00:43:41;;;;;;;7.38;3.78;;;10.40;99.90;;;;;;4190834;28;20048;-62
2022/04/27 00:45:42;;;;;;;5.47;3.80;;;10.40;99.90;;;;;;4183101;28;20033;-62
2022/04/27 00:47:43;;;;;;;5.97;3.95;;;10.40;99.90;;;;;;4182167;28;20063;-62
2022/04/27 00:49:46;;;;;;;6.03;4.05;;;10.30;99.90;;;;;;4183128;28;20045;-62
2022/04/27 00:51:47;;;;;;;4.57;3.72;;;10.30;99.90;;;;;;4187822;28;20108;-62
2022/04/27 00:53:49;;;;;;;6.80;3.90;;;10.30;99.90;;;;;;4192545;28;20040;-62
2022/04/27 00:55:49;;;;;;;6.20;4.00;;;10.30;99.90;;;;;;4189622;28;20033;-63
2022/04/27 00:57:51;;;;;;;6.63;3.78;;;10.30;99.90;;;;;;4192258;28;20044;-63
2022/04/27 00:59:53;;;;;;;7.25;4.20;;;10.30;99.90;;;;;;4191213;28;20501;-62
2022/04/27 01:01:53;;;;;;;6.93;4.35;;;10.30;99.90;;;;;;4190565;28;20025;-63
2022/04/27 01:03:54;;;;;;;6.30;4.43;;;10.20;99.90;;;;;;4189906;28;21288;-62
2022/04/27 01:05:57;;;;;;;6.72;4.28;;;10.20;99.90;;;;;;4191437;28;20050;-62
2022/04/27 01:08:00;;;;;;;6.68;4.78;;;10.20;99.90;;;;;;4185769;28;20048;-63
2022/04/27 01:10:01;;;;;;;8.13;4.70;;;10.20;99.90;;;;;;4185687;28;20021;-62
2022/04/27 01:12:02;;;;;;;7.05;4.63;;;10.10;99.90;;;;;;4190505;28;20043;-62
2022/04/27 01:14:02;;;;;;;10.93;4.55;;;10.10;99.90;;;;;;4190353;28;20519;-61
2022/04/27 01:16:04;;;;;;;5.80;3.97;;;10.10;99.90;;;;;;4189162;28;20037;-62
2022/04/27 01:18:06;;;;;;;7.70;4.78;;;10.10;99.90;;;;;;4188126;28;20067;-66
2022/04/27 01:20:07;;;;;;;8.02;4.40;;;10.10;99.90;;;;;;4184272;28;20033;-62
2022/04/27 01:22:08;;;;;;;6.53;4.38;;;10.10;99.90;;;;;;4191811;28;20131;-62
2022/04/27 01:24:09;;;;;;;8.88;4.70;;;10.00;99.90;;;;;;4193893;28;20036;-62
2022/04/27 01:26:10;;;;;;;9.70;4.95;;;10.00;99.90;;;;;;4188796;28;20375;-62
2022/04/27 01:28:12;;;;;;;7.45;4.85;;;10.00;99.90;;;;;;4190624;28;20037;-62
2022/04/27 01:30:12;;;;;;;7.03;4.10;;;10.00;99.90;;;;;;4188183;28;20511;-63
2022/04/27 01:32:13;;;;;;;8.50;4.85;;;10.00;99.90;;;;;;4191964;28;20094;-61
2022/04/27 01:34:13;;;;;;;6.68;4.13;;;9.90;99.90;;;;;;4192116;28;20048;-62
2022/04/27 01:36:14;;;;;;;6.85;4.55;;;9.90;99.90;;;;;;4192028;28;20029;-62
2022/04/27 01:38:16;;;;;;;8.18;4.78;;;9.90;99.90;;;;;;4193413;28;20039;-62
2022/04/27 01:40:17;;;;;;;5.22;3.85;;;9.90;99.90;;;;;;4190005;28;20396;-62
2022/04/27 01:42:17;;;;;;;5.43;4.00;;;9.90;99.90;;;;;;4190238;28;20025;-62
2022/04/27 01:44:18;;;;;;;6.18;4.50;;;9.90;99.90;;;;;;4191047;28;20025;-62
2022/04/27 01:46:18;;;;;;;5.45;4.03;;;9.80;99.90;;;;;;4190608;28;20051;-62
2022/04/27 01:48:19;;;;;;;7.20;4.50;;;9.80;99.90;;;;;;4191833;28;20079;-62
2022/04/27 01:50:20;;;;;;;7.43;4.40;;;9.90;99.90;;;;;;4189651;28;20031;-63
2022/04/27 01:54:41;;;;;;;6.88;3.97;;;9.80;99.90;;;;;;4191661;28;20357;-62
2022/04/27 01:56:47;;;;;;;5.90;4.47;;;9.80;99.90;;;;;;4191732;28;20048;-62
2022/04/27 01:58:47;;;;;;;6.95;4.25;;;9.80;99.90;;;;;;4190378;28;20039;-62
2022/04/27 02:00:48;;;;;;;6.82;4.57;;;9.80;99.90;;;;;;4189379;28;20028;-62
2022/04/27 02:02:49;;;;;;;9.75;5.05;;;9.80;99.90;;;;;;4193977;28;20045;-62
2022/04/27 02:04:49;;;;;;;7.20;4.40;;;9.80;99.90;;;;;;4191621;28;20033;-62
2022/04/27 02:06:50;;;;;;;11.15;4.68;;;9.70;99.90;;;;;;4188825;28;20047;-64
2022/04/27 02:08:50;;;;;;;8.80;5.13;;;9.70;99.90;;;;;;4190450;28;20032;-62
2022/04/27 02:10:51;;;;;;;5.78;4.57;;;9.70;99.90;;;;;;4188957;28;20488;-63
2022/04/27 02:12:52;;;;;;;7.50;5.05;;;9.70;99.90;;;;;;4195213;28;20372;-62
2022/04/27 02:14:52;;;;;;;9.32;4.78;;;9.70;99.90;;;;;;4194667;28;20033;-63
2022/04/27 02:16:53;;;;;;;9.05;5.07;;;9.60;99.90;;;;;;4191925;28;20082;-63
2022/04/27 02:18:55;;;;;;;7.47;4.78;;;9.60;99.90;;;;;;4195173;28;20119;-62
2022/04/27 02:20:56;;;;;;;12.10;5.03;;;9.60;99.90;;;;;;4193553;28;20051;-62
2022/04/27 02:22:56;;;;;;;6.22;4.65;;;9.60;99.90;;;;;;4189698;28;20407;-62
2022/04/27 02:24:57;;;;;;;10.27;4.78;;;9.60;99.90;;;;;;4195398;28;20060;-62
2022/04/27 02:26:58;;;;;;;6.43;4.95;;;9.60;99.90;;;;;;4193352;28;20033;-62
2022/04/27 02:28:58;;;;;;;6.28;4.75;;;9.60;99.90;;;;;;4194784;28;20062;-62
2022/04/27 02:30:59;;;;;;;8.38;5.07;;;9.60;99.90;;;;;;4196048;28;20056;-62
2022/04/27 02:32:59;;;;;;;7.57;5.05;;;9.60;99.90;;;;;;4194527;28;20040;-62
2022/04/27 02:35:00;;;;;;;7.53;4.80;;;9.60;99.90;;;;;;4194407;28;20118;-62
2022/04/27 02:37:03;;;;;;;6.63;4.82;;;9.60;99.90;;;;;;4193067;28;20111;-62
2022/04/27 02:39:04;;;;;;;6.35;4.78;;;9.50;99.90;;;;;;4193009;28;20048;-62
2022/04/27 02:41:04;;;;;;;6.60;5.15;;;9.50;99.90;;;;;;4192533;28;20479;-62
2022/04/27 02:43:05;;;;;;;7.20;4.38;;;9.50;99.90;;;;;;4192445;28;20071;-62
2022/04/27 02:45:06;;;;;;;9.15;4.82;;;9.50;99.90;;;;;;4194526;28;20039;-64
2022/04/27 02:47:07;;;;;;;7.68;4.93;;;9.50;99.90;;;;;;4193703;28;20124;-62
2022/04/27 02:53:47;;;;;;;7.45;5.00;;;9.50;99.90;;;;;;4186458;28;20548;-61
2022/04/27 02:55:47;;;;;;;7.32;4.72;;;9.40;99.90;;;;;;4193325;28;20120;-62
2022/04/27 02:57:48;;;;;;;5.95;4.75;;;9.40;99.90;;;;;;4187678;28;20079;-62
2022/04/27 02:59:49;;;;;;;5.15;4.30;;;9.40;99.90;;;;;;4188840;28;20059;-62
2022/04/27 03:01:49;;;;;;;5.15;4.00;;;9.40;99.90;;;;;;4187982;28;20021;-62
2022/04/27 03:03:50;;;;;;;7.22;4.93;;;9.40;99.90;;;;;;4193688;28;20044;-61
2022/04/27 03:05:50;;;;;;;6.10;4.60;;;9.50;99.90;;;;;;4192269;28;20039;-66
2022/04/27 03:07:51;;;;;;;7.43;5.03;;;9.40;99.90;;;;;;4189468;28;20165;-63
2022/04/27 03:09:52;;;;;;;9.43;5.28;;;9.50;99.90;;;;;;4194331;28;20403;-63
2022/04/27 03:11:53;;;;;;;7.57;5.28;;;9.50;99.90;;;;;;4190418;28;20463;-62
2022/04/27 03:13:54;;;;;;;10.43;4.93;;;9.50;99.90;;;;;;4185903;28;20028;-62
2022/04/27 03:15:54;;;;;;;7.88;4.72;;;9.50;99.90;;;;;;4192290;28;20029;-62
2022/04/27 03:20:14;;;;;;;7.00;4.53;;;9.50;99.90;;;;;;4191014;28;20043;-62
2022/04/27 03:22:15;;;;;;;8.13;4.60;;;9.50;99.90;;;;;;4195495;28;20454;-62
2022/04/27 03:24:16;;;;;;;7.55;5.20;;;9.40;99.90;;;;;;4193509;28;20037;-62
2022/04/27 03:26:16;;;;;;;7.60;5.05;;;9.50;99.90;;;;;;4192466;28;20024;-62
2022/04/27 03:28:18;;;;;;;10.05;5.65;;;9.40;99.90;;;;;;4188440;28;20052;-62
2022/04/27 03:30:19;;;;;;;8.40;5.32;;;9.40;99.90;;;;;;4191155;28;20125;-62
2022/04/27 03:32:20;;;;;;;6.97;5.22;;;9.40;99.90;;;;;;4192808;28;20051;-62
2022/04/27 03:34:21;;;;;;;7.70;4.97;;;9.40;99.90;;;;;;4194200;28;20395;-66
2022/04/27 03:36:22;;;;;;;9.10;5.57;;;9.40;99.90;;;;;;4188607;28;20041;-62
2022/04/27 03:38:22;;;;;;;9.65;5.53;;;9.40;99.90;;;;;;4191161;28;20459;-63
2022/04/27 03:40:23;;;;;;;8.98;5.05;;;9.40;99.90;;;;;;4193498;28;20045;-62
2022/04/27 03:42:23;;;;;;;7.38;5.18;;;9.30;99.90;;;;;;4195427;28;20032;-63
2022/04/27 03:44:24;;;;;;;6.30;5.13;;;9.30;99.90;;;;;;4189757;28;20028;-62
2022/04/27 03:46:24;;;;;;;6.55;4.85;;;9.30;99.90;;;;;;4190663;28;20031;-62
2022/04/27 03:48:26;;;;;;;6.50;4.97;;;9.30;99.90;;;;;;4192329;28;20016;-62
2022/04/27 03:50:26;;;;;;;7.85;5.07;;;9.30;99.90;;;;;;4191072;28;20032;-62
2022/04/27 03:52:27;;;;;;;8.95;5.60;;;9.30;99.90;;;;;;4188836;28;20380;-62
2022/04/27 03:54:27;;;;;;;9.77;5.88;;;9.30;99.90;;;;;;4194689;28;20025;-62
2022/04/27 03:56:28;;;;;;;7.40;5.43;;;9.30;99.90;;;;;;4189613;28;20064;-62
2022/04/27 03:58:29;;;;;;;8.68;5.53;;;9.20;99.90;;;;;;4190686;28;20028;-62
2022/04/27 04:00:30;;;;;;;7.22;5.40;;;9.20;99.90;;;;;;4191143;28;20033;-62
2022/04/27 04:02:31;;;;;;;7.28;5.50;;;9.20;99.90;;;;;;4190668;28;20048;-62
2022/04/27 04:04:31;;;;;;;8.15;5.18;;;9.20;99.90;;;;;;4193265;28;20036;-62
2022/04/27 04:06:32;;;;;;;9.55;5.97;;;9.20;99.90;;;;;;4191644;28;20032;-62
2022/04/27 04:08:33;;;;;;;8.43;5.45;;;9.20;99.90;;;;;;4191663;28;20033;-62
2022/04/27 04:10:34;;;;;;;12.75;5.60;;;9.20;99.90;;;;;;4188584;28;20033;-62
2022/04/27 04:12:35;;;;;;;8.65;5.35;;;9.20;99.90;;;;;;4193242;28;20028;-62
2022/04/27 04:14:36;;;;;;;9.18;5.47;;;9.20;99.90;;;;;;4193506;28;20035;-62
2022/04/27 04:16:37;;;;;;;10.40;5.50;;;9.20;99.90;;;;;;4184395;28;20029;-63
2022/04/27 04:18:37;;;;;;;9.10;5.80;;;9.20;99.90;;;;;;4193594;28;20119;-63
2022/04/27 04:20:38;;;;;;;8.85;5.70;;;9.30;99.90;;;;;;4188443;28;20036;-61
2022/04/27 04:22:40;;;;;;;9.82;5.80;;;9.30;99.90;;;;;;4193853;28;20028;-62
2022/04/27 04:29:19;;;;;;;8.13;5.88;;;9.20;99.90;;;;;;4190934;28;20037;-62
2022/04/27 04:31:20;;;;;;;9.15;5.60;;;9.30;99.90;;;;;;4188242;28;20388;-62
2022/04/27 04:33:21;;;;;;;7.13;5.75;;;9.30;99.90;;;;;;4187323;28;20032;-62
2022/04/27 04:35:21;;;;;;;7.72;5.97;;;9.30;99.90;;;;;;4184679;28;20039;-62
2022/04/27 04:37:22;;;;;;;7.07;5.55;;;9.30;99.90;;;;;;4190005;28;20037;-63
2022/04/27 04:39:22;;;;;;;10.13;5.85;;;9.30;99.90;;;;;;4189376;28;20036;-63
2022/04/27 04:41:23;;;;;;;7.70;6.00;;;9.20;99.90;;;;;;4186459;28;20042;-62
2022/04/27 04:43:23;;;;;;;8.27;5.85;;;9.30;99.90;;;;;;4189800;28;20480;-62
2022/04/27 04:45:24;;;;;;;9.57;6.30;;;9.20;99.90;;;;;;4188434;28;20039;-62
2022/04/27 04:47:25;;;;;;;9.65;6.22;;;9.20;99.90;;;;;;4189617;28;20107;-62
2022/04/27 04:49:28;;;;;;;9.10;6.53;;;9.20;99.90;;;;;;4190568;28;20056;-62
2022/04/27 04:51:28;;;;;;;9.13;6.22;;;9.30;99.90;;;;;;4186901;28;20045;-62
2022/04/27 04:53:30;;;;;;;11.15;7.18;;;9.20;99.90;;;;;;4188956;28;20032;-62
2022/04/27 04:55:31;;;;;;;7.75;5.38;;;9.20;99.90;;;;;;4193006;28;20091;-62
2022/04/27 04:57:32;;;;;;;11.15;6.53;;;9.30;99.90;;;;;;4191615;28;20512;-62
2022/04/27 04:59:32;;;;;;;10.30;6.40;;;9.30;99.90;;;;;;4188561;28;20037;-63
2022/04/27 05:01:33;;;;;;;8.20;5.85;;;9.30;99.90;;;;;;4188998;28;20029;-63
2022/04/27 05:03:36;;;;;;;7.43;5.50;;;9.30;99.90;;;;;;4192979;28;20093;-63
2022/04/27 05:05:40;;;;;;;9.30;6.50;;;9.30;99.90;;;;;;4192477;28;20107;-62
2022/04/27 05:07:41;;;;;;;7.55;5.93;;;9.30;99.90;;;;;;4189656;28;20411;-63
2022/04/27 05:09:41;;;;;;;10.20;6.32;;;9.30;99.90;;;;;;4185364;28;20033;-63
2022/04/27 05:11:43;;;;;;;8.40;5.85;;;9.30;99.90;;;;;;4188673;28;20048;-62
2022/04/27 05:13:44;;;;;;;8.63;6.10;;;9.30;99.90;;;;;;4187579;28;20039;-63
2022/04/27 05:15:44;;;;;;;8.75;5.97;;;9.40;99.90;;;;;;4187600;28;20028;-62
2022/04/27 05:17:45;;;;;;;9.05;5.95;;;9.40;99.90;;;;;;4189518;28;20024;-63
2022/04/27 05:19:48;;;;;;;9.63;6.75;;;9.50;99.90;;;;;;4194452;28;20028;-63
2022/04/27 05:21:49;;;;;;;8.15;5.93;;;9.40;99.90;;;;;;4191780;28;20108;-63
2022/04/27 05:23:50;;;;;;;10.05;6.80;;;9.50;99.90;;;;;;4189666;28;20051;-63
2022/04/27 05:25:51;;;;;;;8.32;6.40;;;9.50;99.90;;;;;;4191581;28;20025;-62
2022/04/27 05:27:51;;;;;;;10.00;6.78;;;9.50;99.90;;;;;;4191985;28;20445;-63
2022/04/27 05:32:12;;;;;;;8.60;6.35;;;9.60;99.90;;;;;;4188855;28;20033;-63
2022/04/27 05:34:12;;;;;;;11.73;6.95;;;9.50;99.90;;;;;;4185059;28;20041;-63
2022/04/27 05:36:13;;;;;;;10.45;7.13;;;9.40;99.90;;;;;;4188804;28;20087;-63
2022/04/27 05:38:14;;;;;;;10.68;6.50;;;9.40;99.90;;;;;;4194445;28;20048;-63
2022/04/27 05:40:14;;;;;;;10.18;6.93;;;9.40;99.90;;;;;;4189194;28;20067;-63
2022/04/27 05:42:15;;;;;;;9.85;6.32;;;9.50;99.90;;;;;;4189073;28;20123;-63
2022/04/27 05:44:22;;;;;;;9.85;6.90;;;9.50;99.90;;;;;;4189167;28;20481;-63
2022/04/27 05:46:22;;;;;;;9.05;6.43;;;9.60;99.90;;;;;;4187600;28;20491;-63
2022/04/27 05:48:23;;;;;;;9.25;6.10;;;9.60;99.90;;;;;;4185828;28;20028;-64
2022/04/27 05:50:23;;;;;;;11.90;6.82;;;9.60;99.90;;;;;;4189635;28;20033;-63
2022/04/27 05:52:24;;;;;;;10.10;6.15;;;9.50;99.90;;;;;;4192108;28;20037;-63
2022/04/27 05:54:24;;;;;;;12.48;6.63;;;9.50;99.90;;;;;;4191187;28;20484;-63
2022/04/27 05:56:25;;;;;;;10.80;7.00;;;9.40;99.90;;;;;;4186861;28;20040;-63
2022/04/27 05:58:26;;;;;;;11.15;7.25;;;9.20;99.90;;;;;;4187622;28;20550;-63
2022/04/27 06:00:26;;;;;;;8.55;6.78;;;9.30;99.90;;;;;;4188008;28;20066;-63
2022/04/27 06:02:28;;;;;;;9.60;6.45;;;9.20;99.90;;;;;;4192606;28;20056;-63
2022/04/27 06:04:29;;;;;;;9.97;6.77;;;9.20;99.90;;;;;;4191226;28;20028;-63
2022/04/27 06:06:30;;;;;;;13.60;6.95;;;9.30;99.90;;;;;;4187430;28;20784;-63
2022/04/27 06:08:30;;;;;;;12.02;6.85;;;9.30;99.90;;;;;;4191080;28;20052;-63
2022/04/27 06:10:31;;;;;;;9.65;7.05;;;9.40;99.90;;;;;;4188046;28;20032;-63
2022/04/27 06:12:35;;;;;;;9.90;6.30;;;9.50;99.90;;;;;;4190292;28;20086;-63
2022/04/27 06:14:36;;;;;;;9.18;6.82;;;9.60;99.90;;;;;;4190328;28;20471;-63
2022/04/27 06:16:37;;;;;;;9.00;6.43;;;9.70;99.90;;;;;;4187011;28;20064;-63
2022/04/27 06:18:40;;;;;;;10.85;6.93;;;9.70;99.90;;;;;;4192415;28;20021;-63
2022/04/27 06:20:40;;;;;;;11.82;7.07;;;9.80;99.90;;;;;;4186684;28;20032;-62
2022/04/27 06:22:41;;;;;;;10.32;6.65;;;9.80;99.90;;;;;;4184971;28;20104;-63
2022/04/27 06:24:41;;;;;;;8.90;6.53;;;9.90;99.90;;;;;;4188494;28;20037;-63
2022/04/27 06:26:42;;;;;;;8.70;6.28;;;10.00;99.90;;;;;;4188651;28;20076;-63
2022/04/27 06:28:42;;;;;;;9.77;6.18;;;10.10;99.90;;;;;;4188019;28;20370;-63
2022/04/27 06:30:43;;;;;;;8.60;6.10;;;10.10;99.90;;;;;;4189261;28;20388;-63
2022/04/27 06:32:44;;;;;;;8.63;6.38;;;10.20;99.90;;;;;;4189699;28;20047;-63
2022/04/27 06:34:44;;;;;;;9.13;6.55;;;10.30;99.90;;;;;;4189975;28;20028;-63
2022/04/27 06:36:45;;;;;;;10.48;6.38;;;10.30;99.90;;;;;;4188802;28;20036;-63
2022/04/27 06:38:46;;;;;;;10.38;6.80;;;10.60;99.90;;;;;;4188429;28;20033;-63
2022/04/27 06:40:46;;;;;;;7.95;5.90;;;10.80;99.90;;;;;;4186820;28;20029;-62
2022/04/27 06:42:47;;;;;;;10.07;6.45;;;11.30;99.90;;;;;;4188507;28;20036;-63
2022/04/27 06:44:48;;;;;;;9.70;5.55;;;11.60;99.90;;;;;;4190307;28;20029;-63
2022/04/27 06:46:48;;;;;;;9.02;5.30;;;12.00;99.90;;;;;;4183703;28;20880;-63
2022/04/27 06:48:49;;;;;;;9.82;5.25;;;12.50;99.90;;;;;;4189145;28;20024;-63
2022/04/27 06:50:50;;;;;;;7.22;4.80;;;12.80;99.90;;;;;;4187882;28;20032;-63
2022/04/27 06:52:50;;;;;;;9.82;5.22;;;13.20;99.90;;;;;;4187496;28;20032;-63
2022/04/27 06:54:51;;;;;;;9.38;5.90;;;13.60;99.90;;;;;;4187894;28;20118;-63
2022/04/27 06:56:52;;;;;;;12.38;5.72;;;13.80;99.90;;;;;;4184899;28;20021;-63
2022/04/27 06:58:52;;;;;;;7.85;5.00;;;13.50;99.90;;;;;;4189008;28;20021;-63
2022/04/27 07:00:53;;;;;;;6.80;4.72;;;13.60;99.90;;;;;;4188547;28;20037;-63
2022/04/27 07:02:54;;;;;;;10.15;5.05;;;13.90;99.90;;;;;;4191433;28;20144;-62
2022/04/27 07:05:00;;;;;;;8.13;4.57;;;14.00;99.90;;;;;;4191919;28;20442;-65
2022/04/27 07:07:02;;;;;;;7.63;4.63;;;14.20;99.90;;;;;;4190851;28;20275;-63
2022/04/27 07:09:04;;;;;;;11.95;5.38;;;14.30;99.90;;;;;;4191539;28;20662;-63
2022/04/27 07:11:05;;;;;;;6.60;4.50;;;14.30;99.90;;;;;;4190055;28;20044;-63
2022/04/27 07:13:06;;;;;;;8.93;4.07;;;14.20;99.90;;;;;;4193444;28;20050;-63
2022/04/27 07:15:07;;;;;;;8.95;4.32;;;13.90;99.90;;;;;;4189972;28;20041;-65
2022/04/27 07:17:07;;;;;;;6.82;4.30;;;14.10;99.90;;;;;;4191976;28;20036;-63
2022/04/27 07:19:08;;;;;;;9.85;4.43;;;14.30;99.90;;;;;;4192674;28;20033;-63
2022/04/27 07:21:10;;;;;;;10.43;4.57;;;14.30;99.90;;;;;;4191089;28;20055;-63
2022/04/27 07:23:11;;;;;;;5.93;3.75;;;14.20;99.90;;;;;;4190276;28;20911;-64
2022/04/27 07:25:12;;;;;;;5.93;3.78;;;14.40;99.90;;;;;;4191156;28;20040;-64
2022/04/27 07:27:13;;;;;;;6.97;3.13;;;14.60;99.90;;;;;;4191644;28;20150;-64
2022/04/27 07:29:14;;;;;;;6.20;3.28;;;14.40;99.20;;;;;;4190997;28;20488;-64
2022/04/27 07:31:14;;;;;;;6.25;3.03;;;14.70;99.90;;;;;;4191108;28;20059;-64
2022/04/27 07:33:15;;;;;;;4.38;2.75;;;14.80;99.90;;;;;;4191014;28;20033;-64
2022/04/27 07:35:18;;;;;;;4.78;2.25;;;14.80;99.90;;;;;;4190106;28;20044;-63
2022/04/27 07:37:18;;;;;;;;;;;14.90;97.80;;;;;;4191620;28;20040;-63
2022/04/27 07:39:19;;;;;;;5.55;2.97;;;14.60;97.30;;;;;;4191592;28;20375;-64
2022/04/27 07:41:20;;;;;;;4.50;2.08;;;14.40;97.60;;;;;;4191098;28;20024;-63
2022/04/27 07:43:20;;;;;;;8.00;2.85;;;14.30;96.60;;;;;;4190809;28;20037;-64
2022/04/27 07:45:21;;;;;;;4.68;2.42;;;14.30;96.90;;;;;;4190633;28;20372;-64
2022/04/27 07:47:21;;;;;;;5.05;2.70;;;14.50;99.90;;;;;;4191087;28;20035;-64
2022/04/27 07:49:22;;;;;;;4.25;2.53;;;14.60;99.90;;;;;;4185579;28;20036;-64
2022/04/27 07:51:23;;;;;;;9.88;2.70;;;14.40;97.50;;;;;;4190695;28;20094;-63
2022/04/27 07:53:23;;;;;;;5.95;2.10;;;14.70;99.90;;;;;;4190004;28;20040;-63
2022/04/27 07:55:24;;;;;;;4.15;2.10;;;14.80;97.70;;;;;;4189814;28;20559;-63
2022/04/27 07:57:29;;;;;;;3.97;2.55;;;14.90;97.30;;;;;;4191026;28;20041;-65
2022/04/27 07:59:30;;;;;;;4.68;2.40;;;15.10;99.90;;;;;;4190846;28;20070;-64
2022/04/27 08:01:31;;;;;;;3.72;2.35;;;15.20;98.40;;;;;;4191635;28;20182;-64
2022/04/27 08:03:31;;;;;;;4.03;2.25;;;15.40;99.90;;;;;;4191582;28;20048;-63
2022/04/27 08:05:32;;;;;;;5.13;2.38;;;15.50;99.20;;;;;;4189978;28;20521;-63
2022/04/27 08:07:41;;;;;;;3.92;2.10;;;15.60;99.90;;;;;;4192074;28;20383;-64
2022/04/27 08:09:41;;;;;;;6.13;2.80;;;15.80;98.00;;;;;;4191196;28;20098;-64
2022/04/27 08:11:42;;;;;;;5.70;2.90;;;15.70;98.60;;;;;;4191292;28;20040;-64
2022/04/27 08:13:43;;;;;;;6.90;2.70;;;15.70;99.50;;;;;;4191217;28;20510;-64
2022/04/27 08:15:44;;;;;;;3.30;2.25;;;15.80;98.10;;;;;;4191343;28;21203;-64
2022/04/27 08:17:54;;;;;;;4.93;2.55;;;16.00;99.00;;;;;;4190758;28;20070;-64
2022/04/27 08:21:13;;;;;;;6.75;2.60;;;16.10;99.80;;;;;;4191484;28;20028;-63
2022/04/27 08:22:15;;;;;;;6.03;2.30;;;16.20;99.90;;;;;;4185335;28;20040;-64
2022/04/27 08:24:19;;;;;;;5.30;2.40;;;16.30;93.70;;;;;;4189501;28;20036;-63
2022/04/27 08:26:19;;;;;;;5.72;2.67;;;16.40;98.30;;;;;;4186686;28;20115;-64
2022/04/27 08:28:20;;;;;;;6.57;2.45;;;16.30;95.80;;;;;;4197683;28;20079;-64
2022/04/27 08:30:20;;;;;;;4.75;2.40;;;16.10;94.50;;;;;;4190397;28;20043;-63
2022/04/27 08:32:21;;;;;;;6.93;2.70;;;15.80;92.80;;;;;;4191659;28;20040;-64
2022/04/27 08:34:24;;;;;;;6.88;2.92;;;15.70;93.90;;;;;;4189412;28;20055;-65
2022/04/27 08:36:25;;;;;;;4.68;2.33;;;15.30;91.90;;;;;;4186901;28;20033;-65
2022/04/27 08:38:27;;;;;;;4.15;2.38;;;15.50;94.90;;;;;;4189219;28;20523;-65
2022/04/27 08:40:28;;;;;;;4.60;1.93;;;15.70;97.10;;;;;;4188280;28;20409;-67
2022/04/27 08:42:29;;;;;;;5.50;1.90;;;15.60;95.10;;;;;;4189383;28;20492;-64
2022/04/27 08:44:29;;;;;;;2.63;1.85;;;15.70;92.40;;;;;;4189704;28;20067;-63
2022/04/27 08:46:31;;;;;;;4.30;1.70;;;16.00;97.40;;;;;;4189499;28;20036;-63
2022/04/27 08:48:32;;;;;;;4.38;1.88;;;16.20;97.40;;;;;;4191165;28;20082;-63
2022/04/27 08:50:33;;;;;;;4.35;2.00;;;16.40;95.70;;;;;;4190355;28;20040;-63
2022/04/27 08:52:34;;;;;;;2.95;1.73;;;16.50;96.80;;;;;;4190107;28;20071;-63
2022/04/27 08:54:34;;;;;;;2.45;1.52;;;16.60;95.80;;;;;;4191029;28;20098;-63
2022/04/27 08:56:35;;;;;;;2.08;1.65;;;16.70;96.20;;;;;;4188458;28;20178;-63
2022/04/27 08:58:36;;;;;;;2.90;1.40;;;16.90;95.00;;;;;;4189441;28;20046;-63
2022/04/27 09:00:37;;;;;;;6.57;1.90;;;17.00;95.90;;;;;;4188514;28;20037;-64
2022/04/27 09:02:38;;;;;;;5.47;1.70;;;16.70;90.00;;;;;;4189991;28;20082;-63
2022/04/27 09:04:39;;;;;;;5.10;1.73;;;16.90;95.10;;;;;;4187290;28;20044;-63
2022/04/27 09:06:40;;;;;;;3.92;1.77;;;17.10;96.20;;;;;;4188717;28;20025;-63
2022/04/27 09:08:45;;;;;;;2.72;1.90;;;17.20;95.50;;;;;;4186172;28;20044;-65
2022/04/27 09:10:46;;;;;;;3.83;2.35;;;17.30;95.90;;;;;;4183227;28;24500;-64
2022/04/27 09:12:52;;;;;;;5.57;1.60;;;17.10;87.90;;;;;;4188370;28;20052;-63
2022/04/27 09:15:02;;;;;;;3.65;1.83;;;17.10;93.30;;;;;;4190035;28;20522;-63
2022/04/27 09:22:04;;;;;;;4.38;2.13;;;16.60;92.60;;;;;;4187121;28;20044;-63
2022/04/27 09:24:04;;;;;;;4.35;2.22;;;16.70;92.00;;;;;;4190690;28;20076;-63
2022/04/27 09:26:18;;;;;;;3.88;2.20;;;16.90;91.30;;;;;;4188063;28;20040;-63
2022/04/27 09:28:31;;;;;;;5.57;3.05;;;16.90;93.10;;;;;;4190221;28;20403;-63
2022/04/27 09:30:33;;;;;;;5.80;2.67;;;17.10;93.10;;;;;;4190226;28;20033;-63
2022/04/27 09:32:37;;;;;;;7.33;2.73;;;16.80;84.80;;;;;;4189697;28;20271;-63
2022/04/27 09:34:45;;;;;;;3.88;2.40;;;17.00;93.60;;;;;;4189776;28;20484;-63
2022/04/27 09:36:46;;;;;;;4.57;2.90;;;17.10;93.10;;;;;;4188652;28;20503;-63
2022/04/27 09:38:47;;;;;;;6.47;2.63;;;17.30;92.90;;;;;;4190717;28;20037;-63
2022/04/27 09:40:53;;;;;;;5.10;2.50;;;17.40;93.20;;;;;;4193408;28;20064;-64
2022/04/27 09:42:59;;;;;;;4.72;2.50;;;17.50;93.10;;;;;;4190472;28;20028;-63
2022/04/27 09:45:25;;;;;;;4.53;2.58;;;17.60;93.10;;;;;;4187961;28;20111;-64
2022/04/27 09:47:26;;;;;;;7.85;2.90;;;17.70;90.00;;;;;;4187873;28;20456;-64
2022/04/27 09:49:27;;;;;;;3.20;2.42;;;17.70;91.90;;;;;;4188053;28;20060;-64
2022/04/27 09:51:28;;;;;;;4.32;2.53;;;17.60;90.50;;;;;;4186297;28;20674;-64
2022/04/27 09:53:29;;;;;;;4.45;2.97;;;17.60;89.60;;;;;;4189238;28;21078;-64
2022/04/27 09:55:30;;;;;;;5.88;3.10;;;17.30;84.20;;;;;;4186943;28;20040;-63
2022/04/27 09:57:35;;;;;;;5.93;3.13;;;17.00;87.30;;;;;;4187820;28;20040;-63
2022/04/27 09:59:36;;;;;;;6.03;3.00;;;16.90;92.40;;;;;;4189382;28;20033;-63
2022/04/27 10:01:38;;;;;;;6.13;3.10;;;16.90;93.80;;;;;;4188552;28;20033;-63
2022/04/27 10:03:39;;;;;;;4.20;2.75;;;16.70;88.30;;;;;;4189309;28;20043;-63
2022/04/27 10:05:40;;;;;;;7.57;3.25;;;16.90;90.90;;;;;;4188423;28;20063;-63
2022/04/27 10:07:42;;;;;;;10.90;4.18;;;16.80;87.00;;;;;;4187299;28;20028;-63
2022/04/27 10:09:43;;;;;;;6.75;3.80;;;16.30;87.70;;;;;;4187802;28;20051;-63
2022/04/27 10:11:44;;;;;;;5.18;3.05;;;16.40;88.80;;;;;;4188586;28;20127;-64
2022/04/27 10:13:46;;;;;;;6.00;3.38;;;16.60;93.20;;;;;;4185296;28;20057;-63
2022/04/27 10:15:48;;;;;;;7.37;3.67;;;16.70;91.60;;;;;;4188955;28;20044;-63
2022/04/27 10:17:49;;;;;;;6.55;3.25;;;16.70;90.10;;;;;;4185909;28;20383;-63
2022/04/27 10:19:50;;;;;;;4.68;3.20;;;16.60;86.90;;;;;;4186842;28;20029;-64
2022/04/27 10:21:56;;;;;;;4.88;3.10;;;16.70;93.50;;;;;;4191213;28;20050;-63
2022/04/27 10:23:57;;;;;;;6.63;3.60;;;16.80;90.80;;;;;;4189105;28;20036;-64
2022/04/27 10:26:14;;;;;;;5.55;3.15;;;16.60;83.60;;;;;;4187003;28;20507;-64
2022/04/27 10:28:22;;;;;;;7.45;3.85;;;16.70;89.30;;;;;;4188442;28;20453;-64
2022/04/27 10:30:42;;;;;;;4.85;3.05;;;16.50;90.20;;;;;;4184148;28;20040;-64
2022/04/27 10:32:51;;;;;;;5.25;3.38;;;16.70;88.60;;;;;;4186261;28;20033;-64
2022/04/27 10:35:14;;;;;;;5.07;3.40;;;16.90;93.00;;;;;;4191427;28;20041;-64
2022/04/27 10:37:34;;;;;;;;;;;16.70;85.00;;;;;;4191564;28;20035;-64
2022/04/27 10:39:35;;;;;;;8.85;3.97;;;16.80;90.60;;;;;;4192231;28;20296;-65
2022/04/27 10:41:36;;;;;;;8.52;3.60;;;17.00;93.00;;;;;;4190833;28;20128;-64
2022/04/27 10:43:43;;;;;;;7.10;3.83;;;17.10;94.10;;;;;;4189316;28;20443;-64
2022/04/27 10:45:45;;;;;;;6.45;3.83;;;17.20;92.40;;;;;;4191195;28;20032;-64
2022/04/27 10:47:46;;;;;;;6.50;3.70;;;17.40;91.40;;;;;;4190172;28;20032;-64
2022/04/27 10:49:48;;;;;;;5.80;3.60;;;17.50;92.20;;;;;;4191384;28;20032;-64
2022/04/27 10:51:59;;;;;;;7.90;3.78;;;17.60;88.20;;;;;;4188711;28;20124;-64
2022/04/27 10:54:05;;;;;;;4.40;2.85;;;17.60;90.00;;;;;;4193316;28;20044;-64
2022/04/27 10:56:26;;;;;;;5.50;4.00;;;17.60;89.10;;;;;;4189915;28;20051;-64
2022/04/27 10:58:42;;;;;;;4.10;3.15;;;17.60;90.40;;;;;;4186931;28;20048;-64